Time;durP1;ratioP1;P1;durP2;ratioP2;P2;SDS_P1;SDS_P2;PMS_P1;PMS_P2;Temp;Humidity;BMP_temperature;BMP_pressure;BME280_temperature;BME280_humidity;BME280_pressure;Samples;Min_cycle;Max_cycle;Signal;HPM_P1;HPM_P2
2021/12/07 00:01:14;;;;;;;;;4.50;4.00;;;;;2.08;99.24;100351.41;5032929;28;11531;-68
2021/12/07 00:03:41;;;;;;;;;7.50;6.50;;;;;2.11;99.37;100358.28;5033457;28;11603;-69
2021/12/07 00:06:08;;;;;;;;;8.75;8.00;;;;;2.15;99.64;100357.00;5029712;28;11495;-68
2021/12/07 00:08:36;;;;;;;;;11.50;11.00;;;;;2.17;99.80;100381.72;5033220;28;11460;-70
2021/12/07 00:11:03;;;;;;;;;12.00;12.00;;;;;2.17;99.76;100376.38;5033657;28;12329;-68
2021/12/07 00:13:33;;;;;;;;;11.75;10.00;;;;;2.21;100.00;100376.91;5020541;28;11689;-69
2021/12/07 00:16:00;;;;;;;;;15.25;11.00;;;;;2.16;99.83;100378.22;5032259;28;11463;-67
2021/12/07 00:18:27;;;;;;;;;7.25;7.25;;;;;2.19;100.00;100357.53;5033967;28;11592;-69
2021/12/07 00:20:54;;;;;;;;;12.25;10.00;;;;;2.21;100.00;100372.41;5026424;28;11474;-68
2021/12/07 00:23:20;;;;;;;;;10.75;10.00;;;;;2.26;100.00;100366.66;5031112;28;11481;-68
2021/12/07 00:25:47;;;;;;;;;13.00;12.50;;;;;2.22;100.00;100366.09;5029863;28;11498;-67
2021/12/07 00:28:14;;;;;;;;;10.50;10.50;;;;;2.24;100.00;100363.31;5032861;28;11477;-69
2021/12/07 00:30:41;;;;;;;;;7.50;7.00;;;;;2.26;100.00;100366.66;5034347;28;11480;-68
2021/12/07 00:33:55;;;;;;;;;8.50;8.50;;;;;2.27;100.00;100369.19;5035515;28;11457;-69
2021/12/07 00:35:58;;;;;;;;;10.50;10.50;;;;;2.25;100.00;100367.66;5028335;28;11426;-68
2021/12/07 00:38:25;;;;;;;;;12.00;10.00;;;;;2.25;100.00;100375.66;5035736;28;11505;-68
2021/12/07 00:40:54;;;;;;;;;9.25;8.75;;;;;2.31;100.00;100391.09;5034653;28;11558;-69
2021/12/07 00:43:21;;;;;;;;;10.50;8.00;;;;;2.31;100.00;100377.75;5035662;28;11504;-69
2021/12/07 00:45:49;;;;;;;;;12.25;11.00;;;;;2.36;100.00;100386.16;5031334;28;11488;-69
2021/12/07 00:48:17;;;;;;;;;11.75;11.25;;;;;2.37;100.00;100391.34;5033897;28;11616;-69
2021/12/07 00:50:47;;;;;;;;;12.25;12.25;;;;;2.38;100.00;100389.50;5029958;28;12254;-69
2021/12/07 00:53:14;;;;;;;;;12.00;12.00;;;;;2.44;100.00;100397.75;5034404;28;11506;-69
2021/12/07 00:55:47;;;;;;;;;10.25;10.00;;;;;2.45;100.00;100399.44;5034111;28;11506;-69
2021/12/07 00:58:21;;;;;;;;;15.50;9.00;;;;;2.43;100.00;100403.25;5035488;28;11596;-69
2021/12/07 01:01:06;;;;;;;;;13.75;11.25;;;;;2.48;100.00;100403.69;5021149;28;11622;-69
2021/12/07 01:03:34;;;;;;;;;6.75;6.75;;;;;2.44;100.00;100402.25;5033557;28;11471;-69
2021/12/07 01:08:58;;;;;;;;;13.00;7.00;;;;;2.50;100.00;100415.06;5032916;28;12304;-69
2021/12/07 01:25:20;;;;;;;;;9.00;8.25;;;;;2.56;100.00;100425.16;5033683;28;11551;-69
2021/12/07 01:27:49;;;;;;;;;9.50;6.50;;;;;2.55;100.00;100438.66;5024700;28;11496;-69
2021/12/07 01:30:21;;;;;;;;;13.50;8.50;;;;;2.52;100.00;100444.31;5032456;28;11576;-69
2021/12/07 01:33:07;;;;;;;;;9.00;8.50;;;;;2.53;100.00;100448.66;5031266;28;12180;-69
2021/12/07 01:35:59;;;;;;;;;10.75;7.00;;;;;2.49;100.00;100442.75;5030221;28;11478;-69
2021/12/07 01:41:28;;;;;;;;;13.00;9.00;;;;;2.51;100.00;100458.66;5031555;28;11504;-69
2021/12/07 01:47:04;;;;;;;;;8.50;8.50;;;;;2.51;100.00;100461.31;5030892;28;11591;-69
2021/12/07 01:50:12;;;;;;;;;8.25;7.00;;;;;2.49;100.00;100469.47;5030248;28;11451;-69
2021/12/07 01:53:17;;;;;;;;;9.00;9.00;;;;;2.49;99.89;100468.63;5029613;28;11534;-68
2021/12/07 02:00:57;;;;;;;;;6.75;5.00;;;;;2.58;99.71;100476.59;5030465;28;11500;-69
2021/12/07 02:03:25;;;;;;;;;8.25;5.50;;;;;2.59;99.54;100491.66;5014285;28;11451;-68
2021/12/07 02:05:52;;;;;;;;;10.75;6.50;;;;;2.65;99.24;100484.88;5025185;28;11488;-69
2021/12/07 02:08:19;;;;;;;;;4.00;4.00;;;;;2.66;99.23;100489.22;5026342;28;11500;-68
2021/12/07 02:10:46;;;;;;;;;8.00;8.00;;;;;2.67;99.27;100489.06;5017326;28;11499;-69
2021/12/07 02:15:56;;;;;;;;;3.75;3.75;;;;;3.01;100.00;100493.88;5026726;28;11492;-69
2021/12/07 02:18:25;;;;;;;;;2.00;2.00;;;;;3.07;99.93;100499.47;5028011;28;11627;-69
2021/12/07 02:20:52;;;;;;;;;1.00;1.00;;;;;3.20;99.72;100504.44;5029793;28;11460;-70
2021/12/07 02:23:19;;;;;;;;;0.00;0.00;;;;;3.27;99.33;100510.88;5030700;28;11449;-69
2021/12/07 02:25:46;;;;;;;;;0.00;0.00;;;;;3.29;98.63;100514.25;5030276;28;11447;-68
2021/12/07 02:28:14;;;;;;;;;2.00;0.75;;;;;3.31;98.27;100508.75;5029881;28;11331;-68
2021/12/07 02:30:43;;;;;;;;;1.00;0.00;;;;;3.39;97.16;100515.03;5026266;28;11049;-69
2021/12/07 02:33:11;;;;;;;;;0.00;0.00;;;;;3.40;96.19;100511.34;5023541;28;11239;-69
2021/12/07 02:35:38;;;;;;;;;0.50;0.50;;;;;3.38;95.77;100516.00;5030143;28;10976;-69
2021/12/07 02:38:06;;;;;;;;;1.00;0.00;;;;;3.45;95.61;100520.75;5030363;28;11122;-69
2021/12/07 02:40:35;;;;;;;;;0.00;0.00;;;;;3.47;95.54;100521.44;5029363;28;11747;-69
2021/12/07 02:43:03;;;;;;;;;0.00;0.00;;;;;3.48;95.86;100531.19;5030374;28;11019;-69
2021/12/07 02:45:30;;;;;;;;;0.00;0.00;;;;;3.48;96.27;100536.53;5022149;28;10955;-69
2021/12/07 02:47:57;;;;;;;;;0.00;0.00;;;;;3.43;95.89;100533.44;5011131;28;11024;-69
2021/12/07 02:50:24;;;;;;;;;0.00;0.00;;;;;3.42;95.92;100545.16;5036033;28;11127;-68
2021/12/07 02:52:51;;;;;;;;;0.00;0.00;;;;;3.37;96.05;100551.78;5027991;28;10800;-69
2021/12/07 02:55:17;;;;;;;;;0.00;0.00;;;;;3.42;96.58;100548.66;5029515;28;11117;-69
2021/12/07 02:57:44;;;;;;;;;2.00;1.00;;;;;3.36;96.63;100563.50;5013331;28;11153;-69
2021/12/07 03:00:19;;;;;;;;;0.75;0.00;;;;;3.41;96.68;100552.31;5026734;28;11095;-68
2021/12/07 03:02:55;;;;;;;;;0.00;0.00;;;;;3.38;96.76;100555.31;5029630;28;11124;-69
2021/12/07 03:05:55;;;;;;;;;0.00;0.00;;;;;3.40;97.16;100559.50;5029382;28;10915;-68
2021/12/07 03:08:52;;;;;;;;;0.00;0.00;;;;;3.39;97.13;100554.31;5029972;28;11073;-69
2021/12/07 03:27:55;;;;;;;;;0.00;0.00;;;;;3.46;97.26;100584.81;5027047;28;11111;-69
2021/12/07 03:30:23;;;;;;;;;0.00;0.00;;;;;3.52;97.34;100594.97;5029063;28;11019;-69
2021/12/07 03:32:50;;;;;;;;;0.00;0.00;;;;;3.53;97.38;100595.78;5028530;28;11738;-69
2021/12/07 03:35:17;;;;;;;;;0.00;0.00;;;;;3.58;97.49;100596.19;5028251;28;10997;-70
2021/12/07 03:37:45;;;;;;;;;0.00;0.00;;;;;3.48;97.58;100603.44;5026188;28;11043;-70
2021/12/07 03:40:13;;;;;;;;;0.00;0.00;;;;;3.49;98.03;100613.16;5010112;28;11114;-69
2021/12/07 03:42:40;;;;;;;;;0.00;0.00;;;;;3.49;98.14;100603.28;5026210;28;11108;-68
2021/12/07 03:45:10;;;;;;;;;4.00;1.00;;;;;3.51;98.26;100606.66;5028483;28;11057;-68
2021/12/07 03:47:37;;;;;;;;;0.00;0.00;;;;;3.51;98.11;100603.97;5028570;28;11024;-69
2021/12/07 03:50:06;;;;;;;;;0.25;0.25;;;;;3.52;98.41;100600.31;5029883;28;11117;-68
2021/12/07 03:52:33;;;;;;;;;0.75;0.00;;;;;3.53;98.47;100603.81;5024206;28;11763;-69
2021/12/07 03:55:00;;;;;;;;;1.00;0.00;;;;;3.56;98.51;100601.69;5026099;28;11105;-69
2021/12/07 03:57:27;;;;;;;;;0.00;0.00;;;;;3.60;98.49;100602.22;5028312;28;11041;-71
2021/12/07 03:59:54;;;;;;;;;0.00;0.00;;;;;3.62;98.20;100602.91;5028192;28;11036;-69
2021/12/07 04:02:20;;;;;;;;;2.00;2.00;;;;;3.65;98.63;100608.81;5028546;28;11140;-69
2021/12/07 04:04:52;;;;;;;;;1.00;0.00;;;;;3.75;98.95;100618.63;5029260;28;11278;-69
2021/12/07 04:07:19;;;;;;;;;2.50;2.50;;;;;3.83;98.73;100621.41;5012338;28;11328;-70
2021/12/07 04:09:46;;;;;;;;;3.50;0.50;;;;;3.86;98.03;100616.56;5028852;28;11288;-70
2021/12/07 04:12:13;;;;;;;;;0.25;0.25;;;;;3.89;97.69;100615.41;5026721;28;11357;-70
2021/12/07 04:14:39;;;;;;;;;1.75;0.50;;;;;3.86;97.66;100605.84;5007146;28;11198;-70
2021/12/07 04:17:07;;;;;;;;;2.25;1.00;;;;;3.87;97.25;100625.44;5028380;28;10974;-69
2021/12/07 04:19:33;;;;;;;;;0.50;0.50;;;;;3.87;97.83;100628.97;5020971;28;11193;-70
2021/12/07 04:22:00;;;;;;;;;1.25;1.00;;;;;3.86;97.22;100632.63;5026827;28;11084;-70
2021/12/07 04:24:27;;;;;;;;;0.25;0.00;;;;;3.83;97.38;100630.25;5028446;28;11256;-70
2021/12/07 04:26:54;;;;;;;;;2.00;1.00;;;;;3.84;97.45;100625.75;5020513;28;11105;-70
2021/12/07 04:29:21;;;;;;;;;1.00;1.00;;;;;3.85;97.65;100624.75;5027336;28;11100;-70
2021/12/07 04:31:48;;;;;;;;;0.50;0.50;;;;;3.87;97.58;100620.09;5029714;28;11558;-70
2021/12/07 04:34:14;;;;;;;;;1.00;0.00;;;;;3.92;97.88;100636.53;5029172;28;11145;-69
2021/12/07 04:36:41;;;;;;;;;0.00;0.00;;;;;3.92;97.90;100629.34;5019687;28;11145;-69
2021/12/07 04:39:09;;;;;;;;;0.00;0.00;;;;;3.97;98.49;100643.16;5028723;28;11312;-70
2021/12/07 04:41:35;;;;;;;;;0.00;0.00;;;;;4.05;99.25;100669.16;5028036;28;11033;-69
2021/12/07 04:44:03;;;;;;;;;1.75;1.00;;;;;4.09;99.55;100643.75;5027739;28;11748;-69
2021/12/07 04:47:06;;;;;;;;;4.00;1.00;;;;;4.10;99.37;100656.16;5024738;28;11050;-70
2021/12/07 04:57:44;;;;;;;;;1.00;0.00;;;;;3.93;98.70;100643.59;5028354;28;10944;-69
2021/12/07 05:00:18;;;;;;;;;0.00;0.00;;;;;3.92;98.91;100666.84;5027364;28;11628;-69
2021/12/07 05:02:51;;;;;;;;;0.00;0.00;;;;;3.95;98.83;100671.88;5024531;28;11069;-72
2021/12/07 05:05:19;;;;;;;;;0.00;0.00;;;;;3.84;98.36;100664.09;5021478;28;11114;-71
2021/12/07 05:07:52;;;;;;;;;0.00;0.00;;;;;3.88;98.56;100678.00;5026684;28;11063;-70
2021/12/07 05:10:35;;;;;;;;;0.00;0.00;;;;;3.87;98.64;100690.56;5030268;28;11022;-71
2021/12/07 05:15:58;;;;;;;;;0.00;0.00;;;;;3.88;98.92;100694.06;5032279;28;11029;-70
2021/12/07 05:37:59;;;;;;;;;0.00;0.00;;;;;3.95;98.87;100725.47;5020172;28;11069;-71
2021/12/07 05:40:33;;;;;;;;;0.00;0.00;;;;;3.94;99.09;100736.31;5020987;28;10941;-69
2021/12/07 05:43:01;;;;;;;;;0.00;0.00;;;;;3.93;99.15;100740.00;5032625;28;10932;-70
2021/12/07 05:45:34;;;;;;;;;0.00;0.00;;;;;3.91;98.98;100732.09;5031565;28;10889;-70
2021/12/07 05:48:04;;;;;;;;;0.00;0.00;;;;;3.92;99.13;100743.66;5030730;28;11043;-70
2021/12/07 05:50:33;;;;;;;;;0.00;0.00;;;;;3.82;98.77;100740.19;5030032;28;11676;-71
2021/12/07 05:53:00;;;;;;;;;0.00;0.00;;;;;3.85;99.42;100739.91;5031118;28;11052;-70
2021/12/07 05:55:27;;;;;;;;;1.00;0.00;;;;;3.74;99.19;100735.59;5031547;28;11045;-70
2021/12/07 05:57:55;;;;;;;;;0.00;0.00;;;;;3.74;99.39;100743.63;5030977;28;10873;-70
2021/12/07 06:00:27;;;;;;;;;0.00;0.00;;;;;3.70;99.36;100748.41;5031493;28;11060;-70
2021/12/07 06:02:59;;;;;;;;;0.00;0.00;;;;;3.66;99.42;100741.66;5017940;28;11100;-69
2021/12/07 06:05:27;;;;;;;;;0.00;0.00;;;;;3.58;99.04;100749.59;5022407;28;10915;-69
2021/12/07 06:07:54;;;;;;;;;0.00;0.00;;;;;3.56;99.26;100751.56;5030505;28;11118;-70
2021/12/07 06:10:21;;;;;;;;;0.75;0.75;;;;;3.57;99.34;100741.72;5031493;28;10894;-70
2021/12/07 06:12:48;;;;;;;;;0.00;0.00;;;;;3.52;99.24;100750.19;5032001;28;11115;-69
2021/12/07 06:15:18;;;;;;;;;0.00;0.00;;;;;3.49;99.15;100744.28;5024703;28;11022;-71
2021/12/07 06:17:45;;;;;;;;;0.00;0.00;;;;;3.49;99.32;100737.09;5026847;28;11119;-70
2021/12/07 06:20:13;;;;;;;;;0.00;0.00;;;;;3.50;99.37;100735.25;5029253;28;11118;-70
2021/12/07 06:23:00;;;;;;;;;1.00;1.00;;;;;3.53;99.43;100741.16;5029597;28;11044;-69
2021/12/07 06:25:28;;;;;;;;;0.25;0.25;;;;;3.50;99.22;100737.94;5029810;28;10969;-69
2021/12/07 06:27:55;;;;;;;;;0.00;0.00;;;;;3.49;99.02;100731.75;5030580;28;11045;-69
2021/12/07 06:30:21;;;;;;;;;0.00;0.00;;;;;3.48;99.30;100732.72;5030482;28;11152;-69
2021/12/07 06:32:48;;;;;;;;;0.00;0.00;;;;;3.44;98.90;100736.66;5026444;28;11136;-70
2021/12/07 06:35:14;;;;;;;;;1.00;1.00;;;;;3.38;99.06;100731.91;5028700;28;10884;-70
2021/12/07 06:37:41;;;;;;;;;0.00;0.00;;;;;3.34;99.03;100733.19;5027662;28;10896;-69
2021/12/07 06:40:11;;;;;;;;;0.25;0.00;;;;;3.33;98.92;100744.88;5030557;28;11752;-70
2021/12/07 06:42:39;;;;;;;;;0.00;0.00;;;;;3.27;98.75;100737.44;5030021;28;10954;-69
2021/12/07 06:45:12;;;;;;;;;0.50;0.00;;;;;3.28;98.76;100739.13;5022685;28;11065;-70
2021/12/07 06:47:40;;;;;;;;;0.00;0.00;;;;;3.30;99.02;100742.50;5009988;28;11053;-70
2021/12/07 06:50:09;;;;;;;;;0.00;0.00;;;;;3.32;98.89;100748.53;5011704;28;11042;-69
2021/12/07 06:52:36;;;;;;;;;0.00;0.00;;;;;3.30;98.77;100754.03;5022882;28;10828;-69
2021/12/07 06:55:05;;;;;;;;;0.00;0.00;;;;;3.33;98.85;100751.06;5027687;28;10958;-70
2021/12/07 06:57:32;;;;;;;;;0.00;0.00;;;;;3.33;98.87;100756.44;5030521;28;11094;-70
2021/12/07 06:59:58;;;;;;;;;0.00;0.00;;;;;3.32;98.30;100748.53;5020793;28;11047;-69
2021/12/07 07:02:25;;;;;;;;;0.00;0.00;;;;;3.35;98.53;100753.59;5010929;28;11129;-69
2021/12/07 07:04:52;;;;;;;;;0.00;0.00;;;;;3.32;98.32;100752.06;5022411;28;11685;-69
2021/12/07 07:07:22;;;;;;;;;0.00;0.00;;;;;3.29;98.12;100755.03;5029309;28;11199;-69
2021/12/07 07:09:49;;;;;;;;;0.00;0.00;;;;;3.22;98.34;100750.38;5022991;28;11024;-69
2021/12/07 07:12:16;;;;;;;;;0.00;0.00;;;;;3.24;98.49;100753.78;5026277;28;10952;-70
2021/12/07 07:14:42;;;;;;;;;0.00;0.00;;;;;3.26;98.47;100752.66;5019536;28;11169;-69
2021/12/07 07:17:09;;;;;;;;;0.00;0.00;;;;;3.27;98.37;100759.69;5030087;28;10950;-69
2021/12/07 07:19:40;;;;;;;;;0.00;0.00;;;;;3.26;98.42;100760.69;5030047;28;11115;-68
2021/12/07 07:22:07;;;;;;;;;1.50;0.00;;;;;3.27;98.42;100761.50;5028506;28;11299;-69
2021/12/07 07:24:34;;;;;;;;;1.00;0.00;;;;;3.27;98.35;100759.69;5027097;28;11106;-71
2021/12/07 07:27:01;;;;;;;;;0.00;0.00;;;;;3.25;98.43;100758.97;5028943;28;11110;-68
2021/12/07 07:29:27;;;;;;;;;0.00;0.00;;;;;3.26;98.53;100766.03;5029421;28;11141;-68
2021/12/07 07:31:54;;;;;;;;;0.00;0.00;;;;;3.22;98.28;100766.44;5029766;28;11042;-69
2021/12/07 07:34:21;;;;;;;;;1.00;1.00;;;;;3.18;98.39;100768.53;5024777;28;11057;-69
2021/12/07 07:36:47;;;;;;;;;2.00;0.75;;;;;3.19;98.25;100764.88;5029883;28;12304;-68
2021/12/07 07:39:14;;;;;;;;;1.00;1.00;;;;;3.22;98.27;100769.97;5029233;28;11034;-69
2021/12/07 07:41:40;;;;;;;;;1.00;1.00;;;;;3.18;98.02;100757.00;5029185;28;11899;-70
2021/12/07 07:44:07;;;;;;;;;1.50;1.50;;;;;3.59;99.52;100747.75;5025694;28;12042;-70
2021/12/07 07:46:42;;;;;;;;;1.50;1.50;;;;;3.84;100.00;100744.41;5021366;28;15292;-71
2021/12/07 07:49:09;;;;;;;;;1.75;1.00;;;;;3.59;97.58;100753.94;5016938;28;11117;-70
2021/12/07 07:51:36;;;;;;;;;2.00;1.00;;;;;3.51;97.16;100744.97;5019932;28;11019;-70
2021/12/07 07:54:02;;;;;;;;;2.00;0.00;;;;;3.47;96.97;100744.44;5019844;28;11183;-69
2021/12/07 07:56:30;;;;;;;;;0.00;0.00;;;;;3.47;96.79;100751.59;5024556;28;10945;-68
2021/12/07 07:58:57;;;;;;;;;1.00;1.00;;;;;3.49;96.90;100739.78;5020366;28;11068;-71
2021/12/07 08:01:28;;;;;;;;;2.50;1.25;;;;;3.50;96.50;100744.13;5023921;28;11048;-69
2021/12/07 08:03:56;;;;;;;;;1.00;1.00;;;;;3.47;96.54;100751.59;5026144;28;11125;-69
2021/12/07 08:06:23;;;;;;;;;3.50;2.00;;;;;3.41;96.45;100747.66;5020176;28;11035;-69
2021/12/07 08:08:49;;;;;;;;;1.00;1.00;;;;;3.40;96.71;100740.63;5018512;28;11240;-70
2021/12/07 08:11:16;;;;;;;;;2.50;2.00;;;;;3.40;96.88;100737.94;5024938;28;11027;-69
2021/12/07 08:13:52;;;;;;;;;1.25;1.25;;;;;3.45;96.61;100753.56;5021669;28;10973;-69
2021/12/07 08:16:21;;;;;;;;;1.00;1.00;;;;;3.47;96.46;100760.50;5026116;28;11028;-70
2021/12/07 08:18:50;;;;;;;;;1.25;1.00;;;;;3.43;96.42;100760.91;5025940;28;11140;-68
2021/12/07 08:21:17;;;;;;;;;1.25;1.25;;;;;3.44;96.17;100757.22;5022035;28;11466;-69
2021/12/07 08:23:44;;;;;;;;;4.00;4.00;;;;;3.43;95.68;100751.03;5017345;28;11291;-68
2021/12/07 08:26:14;;;;;;;;;2.00;2.00;;;;;3.48;95.80;100759.50;5021321;28;11293;-68
2021/12/07 08:28:47;;;;;;;;;1.25;1.00;;;;;3.51;95.89;100756.53;5017858;28;11058;-69
2021/12/07 08:31:15;;;;;;;;;3.00;3.00;;;;;3.55;95.46;100757.06;5007921;28;11165;-69
2021/12/07 08:33:42;;;;;;;;;1.75;1.75;;;;;3.56;95.72;100758.75;5023754;28;11538;-69
2021/12/07 08:36:08;;;;;;;;;1.00;1.00;;;;;3.57;95.88;100766.63;5018440;28;11157;-69
2021/12/07 08:38:35;;;;;;;;;2.00;2.00;;;;;3.61;96.19;100759.16;5027049;28;11214;-69
2021/12/07 08:41:03;;;;;;;;;1.75;1.00;;;;;3.56;96.19;100756.94;5024924;28;10975;-69
2021/12/07 08:43:32;;;;;;;;;1.25;1.00;;;;;3.54;96.55;100756.22;5026774;28;11451;-69
2021/12/07 08:46:00;;;;;;;;;2.00;0.75;;;;;3.56;96.60;100759.59;5028359;28;11035;-69
2021/12/07 08:48:28;;;;;;;;;1.00;1.00;;;;;3.53;96.47;100759.06;5026303;28;11839;-70
2021/12/07 08:50:56;;;;;;;;;0.75;0.75;;;;;3.55;96.43;100754.41;5009947;28;11681;-68
2021/12/07 08:53:25;;;;;;;;;0.00;0.00;;;;;3.57;96.67;100750.59;5028670;28;10880;-67
2021/12/07 09:01:26;;;;;;;;;4.25;4.00;;;;;3.65;96.04;100763.22;5020915;28;11852;-69
2021/12/07 09:03:56;;;;;;;;;2.00;1.00;;;;;3.67;96.00;100766.59;5026534;28;12182;-69
2021/12/07 09:06:23;;;;;;;;;3.00;2.00;;;;;3.69;96.19;100751.22;5030364;28;11311;-68
2021/12/07 09:08:54;;;;;;;;;4.00;2.50;;;;;3.65;95.46;100758.72;5033828;28;11811;-68
2021/12/07 09:11:21;;;;;;;;;1.50;1.50;;;;;3.70;95.69;100753.75;5025313;28;11104;-69
2021/12/07 09:13:48;;;;;;;;;1.75;1.00;;;;;3.70;95.67;100763.63;5018360;28;11258;-69
2021/12/07 09:16:17;;;;;;;;;2.00;2.00;;;;;3.73;95.89;100762.50;5016402;28;11069;-69
2021/12/07 09:18:46;;;;;;;;;2.00;2.00;;;;;3.69;96.13;100753.91;5020002;28;10963;-68
2021/12/07 09:21:13;;;;;;;;;4.00;2.00;;;;;3.70;96.32;100755.59;5017134;28;11221;-69
2021/12/07 09:23:40;;;;;;;;;3.00;3.00;;;;;3.76;96.38;100760.38;5020102;28;11224;-72
2021/12/07 09:26:07;;;;;;;;;3.00;3.00;;;;;3.76;96.09;100756.88;5017709;28;11866;-71
2021/12/07 09:28:34;;;;;;;;;4.00;4.00;;;;;3.82;96.17;100758.94;5020556;28;11196;-70
2021/12/07 09:31:02;;;;;;;;;6.00;4.75;;;;;3.80;95.61;100771.63;5017384;28;11118;-71
2021/12/07 09:33:30;;;;;;;;;2.50;2.50;;;;;3.81;95.68;100778.69;5024485;28;11780;-71
2021/12/07 09:35:58;;;;;;;;;2.00;2.00;;;;;3.86;96.04;100771.03;5019079;28;11041;-70
2021/12/07 09:38:25;;;;;;;;;2.00;2.00;;;;;3.87;96.22;100762.00;5015700;28;11132;-70
2021/12/07 09:40:53;;;;;;;;;3.00;3.00;;;;;3.89;95.77;100774.25;5005901;28;11063;-73
2021/12/07 09:43:20;;;;;;;;;5.25;2.00;;;;;3.95;96.05;100768.31;5017793;28;11183;-72
2021/12/07 09:45:48;;;;;;;;;2.50;1.75;;;;;4.02;95.99;100765.91;5017886;28;10956;-70
2021/12/07 09:48:15;;;;;;;;;2.00;2.00;;;;;4.05;95.68;100776.31;5026427;28;11023;-71
2021/12/07 09:50:45;;;;;;;;;4.25;4.25;;;;;4.06;95.33;100774.47;5016552;28;10918;-72
2021/12/07 09:53:15;;;;;;;;;3.50;1.75;;;;;4.07;95.27;100776.16;5020508;28;11154;-70
2021/12/07 09:55:42;;;;;;;;;1.75;1.75;;;;;4.10;95.46;100770.50;5014182;28;11047;-71
2021/12/07 09:58:10;;;;;;;;;2.75;1.25;;;;;4.37;95.99;100777.69;5012634;28;11135;-72
2021/12/07 10:00:37;;;;;;;;;6.50;2.00;;;;;4.27;94.74;100785.78;5023486;28;10894;-70
2021/12/07 10:03:04;;;;;;;;;1.25;1.25;;;;;4.48;94.89;100785.53;5009608;28;10960;-70
2021/12/07 10:05:35;;;;;;;;;2.00;2.00;;;;;4.71;94.85;100777.88;5025168;28;11189;-70
2021/12/07 10:08:04;;;;;;;;;1.50;1.00;;;;;4.86;94.35;100784.38;5027130;28;11734;-72
2021/12/07 10:10:34;;;;;;;;;3.00;2.50;;;;;4.89;94.10;100779.56;5027273;28;11054;-70
2021/12/07 10:13:01;;;;;;;;;6.00;2.00;;;;;4.94;94.36;100779.94;5022227;28;10969;-71
2021/12/07 10:15:28;;;;;;;;;2.00;2.00;;;;;5.06;94.21;100782.41;5025604;28;10902;-71
2021/12/07 10:18:09;;;;;;;;;5.75;4.50;;;;;5.06;93.36;100771.66;5024212;28;10783;-70
2021/12/07 10:21:01;;;;;;;;;5.25;3.00;;;;;5.07;93.81;100760.78;5028162;28;10923;-70
2021/12/07 10:23:33;;;;;;;;;7.00;4.00;;;;;5.08;92.72;100757.09;5028872;28;10818;-73
2021/12/07 10:26:05;;;;;;;;;4.50;4.00;;;;;5.13;92.45;100756.63;5023825;28;10897;-71
2021/12/07 10:28:42;;;;;;;;;7.00;6.00;;;;;5.12;92.33;100765.66;5028793;28;10985;-70
2021/12/07 10:31:08;;;;;;;;;2.00;2.00;;;;;5.14;92.36;100761.81;5025725;28;10929;-71
2021/12/07 10:33:44;;;;;;;;;5.75;5.25;;;;;5.19;92.42;100748.78;5024628;28;10827;-71
2021/12/07 10:36:17;;;;;;;;;6.50;4.50;;;;;5.19;92.30;100742.56;5028555;28;10891;-70
2021/12/07 10:38:56;;;;;;;;;4.75;4.75;;;;;5.18;91.79;100747.09;5025120;28;10888;-68
2021/12/07 10:41:26;;;;;;;;;3.50;3.50;;;;;5.22;92.05;100744.97;5021371;28;10911;-70
2021/12/07 10:44:13;;;;;;;;;3.50;2.75;;;;;5.27;92.13;100739.97;5028302;28;10806;-70
2021/12/07 10:46:51;;;;;;;;;6.50;5.00;;;;;5.26;91.65;100727.53;5029002;28;11649;-69
2021/12/07 10:49:29;;;;;;;;;6.00;6.00;;;;;5.29;91.79;100729.06;5023616;28;10811;-69
2021/12/07 10:52:18;;;;;;;;;6.00;5.00;;;;;5.36;91.43;100720.22;5025267;28;10950;-71
2021/12/07 10:54:49;;;;;;;;;2.00;1.00;;;;;5.37;91.27;100715.69;5027748;28;10993;-70
2021/12/07 10:57:21;;;;;;;;;4.25;4.25;;;;;5.33;91.32;100698.22;5028308;28;10864;-70
2021/12/07 11:00:25;;;;;;;;;2.25;1.00;;;;;5.43;91.45;100697.09;5028651;28;10960;-71
2021/12/07 11:03:12;;;;;;;;;5.75;4.00;;;;;5.46;91.00;100698.66;5022554;28;11701;-71
2021/12/07 11:05:50;;;;;;;;;5.50;5.50;;;;;5.51;90.94;100690.94;5018579;28;10803;-69
2021/12/07 11:08:29;;;;;;;;;6.25;4.50;;;;;5.58;90.64;100689.31;5027650;28;11819;-69
2021/12/07 11:10:56;;;;;;;;;7.50;3.00;;;;;5.67;90.57;100695.53;5020671;28;10785;-68
2021/12/07 11:13:35;;;;;;;;;2.25;2.25;;;;;5.70;90.18;100693.41;5026659;28;10937;-67
2021/12/07 11:16:09;;;;;;;;;5.00;4.00;;;;;5.76;89.24;100684.69;5025453;28;11069;-70
2021/12/07 11:18:39;;;;;;;;;6.50;4.75;;;;;5.81;88.81;100676.97;5026989;28;10907;-70
2021/12/07 11:21:12;;;;;;;;;10.00;7.50;;;;;5.82;88.40;100681.34;5025635;28;10875;-71
2021/12/07 11:23:53;;;;;;;;;5.50;5.50;;;;;5.89;88.74;100676.16;5023827;28;10968;-70
2021/12/07 11:32:00;;;;;;;;;6.25;6.25;;;;;5.93;87.58;100661.41;5014595;28;10854;-71
2021/12/07 11:34:39;;;;;;;;;6.00;5.50;;;;;6.00;87.31;100664.31;5019609;28;11064;-71
2021/12/07 11:37:12;;;;;;;;;6.00;4.50;;;;;6.01;87.24;100657.94;5014366;28;10881;-68
2021/12/07 11:39:50;;;;;;;;;5.25;5.25;;;;;5.98;87.00;100652.91;5019971;28;11001;-68
2021/12/07 11:42:21;;;;;;;;;9.25;6.50;;;;;5.96;86.69;100657.59;5016758;28;10751;-71
2021/12/07 11:44:50;;;;;;;;;5.75;5.00;;;;;5.95;86.81;100646.00;5020729;28;11011;-68
2021/12/07 11:47:24;;;;;;;;;6.75;6.00;;;;;5.96;86.53;100645.00;5021169;28;11585;-68
2021/12/07 11:49:51;;;;;;;;;4.25;4.25;;;;;6.02;87.42;100636.28;5013246;28;10885;-69
2021/12/07 11:52:17;;;;;;;;;6.75;6.75;;;;;5.98;86.75;100634.94;5015659;28;10644;-68
2021/12/07 11:54:44;;;;;;;;;7.75;5.50;;;;;5.96;85.79;100628.88;5014648;28;10705;-68
2021/12/07 11:57:14;;;;;;;;;6.00;2.25;;;;;5.95;85.61;100629.88;5015570;28;10779;-70
2021/12/07 11:59:43;;;;;;;;;8.75;6.00;;;;;5.91;86.20;100611.53;5014052;28;10818;-70
2021/12/07 12:02:14;;;;;;;;;8.00;7.50;;;;;5.88;86.19;100621.59;5017545;28;10772;-70
2021/12/07 12:04:42;;;;;;;;;6.75;6.75;;;;;5.86;85.82;100607.47;5024967;28;10861;-68
2021/12/07 12:07:09;;;;;;;;;5.00;4.25;;;;;5.90;86.99;100602.66;5024698;28;10931;-69
2021/12/07 12:09:45;;;;;;;;;10.75;6.50;;;;;5.87;86.83;100611.00;5025934;28;10823;-69
2021/12/07 12:12:45;;;;;;;;;9.75;9.75;;;;;5.80;86.28;100592.03;5016326;28;10978;-68
2021/12/07 12:15:31;;;;;;;;;10.50;9.00;;;;;5.79;86.63;100582.28;5014060;28;11195;-69
2021/12/07 12:18:13;;;;;;;;;11.00;10.25;;;;;5.75;86.61;100580.94;5021091;28;10910;-69
2021/12/07 12:21:08;;;;;;;;;10.50;10.50;;;;;5.73;86.58;100574.06;5018112;28;11733;-69
2021/12/07 12:24:14;;;;;;;;;12.50;9.00;;;;;5.72;86.11;100556.25;5018581;28;11097;-68
2021/12/07 12:26:44;;;;;;;;;10.00;9.75;;;;;5.73;86.92;100549.88;5019991;28;11070;-69
2021/12/07 12:29:21;;;;;;;;;10.00;8.00;;;;;5.73;87.40;100553.41;5014871;28;11075;-68
2021/12/07 12:31:52;;;;;;;;;11.50;10.00;;;;;5.69;86.95;100546.66;5018418;28;11141;-69
2021/12/07 12:34:25;;;;;;;;;8.00;7.25;;;;;5.69;87.33;100552.03;5020422;28;11105;-69
2021/12/07 12:36:57;;;;;;;;;13.00;10.00;;;;;5.69;88.03;100554.72;5018792;28;11763;-69
2021/12/07 12:39:45;;;;;;;;;15.00;11.00;;;;;5.60;87.36;100554.88;5018574;28;10914;-69
2021/12/07 12:42:40;;;;;;;;;13.50;10.00;;;;;5.54;87.98;100548.31;5017078;28;11054;-68
2021/12/07 12:45:31;;;;;;;;;15.25;9.00;;;;;5.51;88.14;100546.81;5016342;28;11086;-69
2021/12/07 12:48:01;;;;;;;;;7.75;7.00;;;;;5.46;88.47;100537.56;5026436;28;11312;-67
2021/12/07 12:50:46;;;;;;;;;14.00;12.50;;;;;5.69;88.52;100535.06;5016373;28;10956;-69
2021/12/07 12:53:32;;;;;;;;;9.50;9.50;;;;;5.57;87.88;100516.59;5015275;28;12039;-71
2021/12/07 12:56:07;;;;;;;;;9.50;9.00;;;;;5.43;87.44;100514.53;5017507;28;10956;-69
2021/12/07 12:58:38;;;;;;;;;9.50;7.50;;;;;5.39;87.75;100507.00;5017086;28;11177;-67
2021/12/07 13:01:17;;;;;;;;;11.00;7.75;;;;;5.41;88.00;100503.13;5016455;28;11068;-71
2021/12/07 13:03:43;;;;;;;;;11.50;9.00;;;;;5.38;87.61;100491.88;5024660;28;11067;-68
2021/12/07 13:06:16;;;;;;;;;12.50;10.25;;;;;5.37;87.38;100484.84;5018179;28;11156;-70
2021/12/07 13:08:59;;;;;;;;;9.00;9.00;;;;;5.33;87.26;100484.34;5036315;28;11149;-67
2021/12/07 13:11:35;;;;;;;;;9.00;7.00;;;;;5.30;87.11;100478.47;5018116;28;11127;-70
2021/12/07 13:14:05;;;;;;;;;11.25;7.75;;;;;5.25;85.57;100466.38;5017204;28;11021;-69
2021/12/07 13:16:34;;;;;;;;;5.00;5.00;;;;;5.28;85.24;100469.72;5006070;28;10993;-68
2021/12/07 13:19:08;;;;;;;;;8.00;6.50;;;;;5.24;84.68;100461.19;5023082;28;10941;-68